Time;durP1;ratioP1;P1;durP2;ratioP2;P2;SDS_P1;SDS_P2;PMS_P1;PMS_P2;Temp;Humidity;BMP_temperature;BMP_pressure;BME280_temperature;BME280_humidity;BME280_pressure;Samples;Min_cycle;Max_cycle;Signal;HPM_P1;HPM_P2
2023/03/12 00:02:34;;;;;;;2.80;2.00;;;;;;;7.39;49.25;99024.50;145035;1260;97922;-77
2023/03/12 00:05:56;;;;;;;2.70;2.20;;;;;;;7.38;49.28;99024.46;144887;1260;107470;-77
2023/03/12 00:09:19;;;;;;;3.70;2.40;;;;;;;7.35;49.33;99023.39;144863;1257;108370;-77
2023/03/12 00:12:41;;;;;;;4.10;2.30;;;;;;;7.34;49.22;99026.66;144981;1261;97995;-76
2023/03/12 00:16:11;;;;;;;4.30;2.40;;;;;;;7.32;49.12;99020.94;144910;1260;98027;-76
2023/03/12 00:19:33;;;;;;;4.30;2.90;;;;;;;7.30;49.09;99020.73;144989;1260;98020;-76
2023/03/12 00:22:55;;;;;;;4.20;2.30;;;;;;;7.28;49.07;99022.61;144888;1257;99395;-76
2023/03/12 00:26:17;;;;;;;3.30;2.40;;;;;;;7.28;49.08;99014.30;144969;1260;98002;-77
2023/03/12 00:29:39;;;;;;;5.30;2.40;;;;;;;7.27;49.15;99010.48;144836;1256;97908;-76
2023/03/12 00:33:01;;;;;;;3.10;2.40;;;;;;;7.26;49.04;99003.05;144955;1261;98278;-77
2023/03/12 00:36:25;;;;;;;3.80;2.40;;;;;;;7.25;49.02;98999.57;145052;1260;111148;-77
2023/03/12 00:39:47;;;;;;;4.40;3.10;;;;;;;7.24;49.09;98994.02;145073;1260;111088;-76
2023/03/12 00:43:09;;;;;;;3.80;2.00;;;;;;;7.23;49.07;98994.19;144989;1258;97927;-77
2023/03/12 00:46:31;;;;;;;3.40;3.10;;;;;;;7.23;49.09;98996.95;144856;1256;98002;-76
2023/03/12 00:49:53;;;;;;;3.70;2.60;;;;;;;7.22;49.08;98994.52;144937;1260;102473;-76
2023/03/12 00:53:14;;;;;;;6.50;2.30;;;;;;;7.21;49.01;98997.09;145224;1260;97943;-76
2023/03/12 00:56:36;;;;;;;5.80;2.60;;;;;;;7.20;49.06;98990.52;145085;1257;99248;-76
2023/03/12 00:59:58;;;;;;;4.60;2.60;;;;;;;7.20;49.06;98992.06;144884;1260;107473;-76
2023/03/12 01:03:20;;;;;;;4.80;2.40;;;;;;;7.20;49.06;98989.46;144816;1258;98011;-76
2023/03/12 01:06:42;;;;;;;3.00;2.30;;;;;;;7.17;49.06;98980.80;144920;1260;97931;-75
2023/03/12 01:10:05;;;;;;;3.30;2.80;;;;;;;7.17;49.08;98980.10;144961;1256;97938;-77
2023/03/12 01:13:27;;;;;;;4.40;2.70;;;;;;;7.16;49.33;98980.61;144820;1263;97931;-76
2023/03/12 01:16:49;;;;;;;3.90;3.30;;;;;;;7.15;49.04;98980.58;144956;1260;97986;-77
2023/03/12 01:20:14;;;;;;;6.00;3.00;;;;;;;7.14;49.15;98974.87;144860;1257;97979;-77
2023/03/12 01:23:36;;;;;;;3.50;2.70;;;;;;;7.14;49.03;98968.83;144837;1260;98445;-75
2023/03/12 01:26:58;;;;;;;4.10;3.60;;;;;;;7.14;49.12;98970.38;144854;1257;98007;-76
2023/03/12 01:30:20;;;;;;;5.90;3.00;;;;;;;7.14;49.05;98971.41;144708;1262;97995;-75
2023/03/12 01:33:42;;;;;;;5.70;3.40;;;;;;;7.15;48.97;98967.97;144793;1258;97961;-76
2023/03/12 01:37:05;;;;;;;4.90;3.00;;;;;;;7.15;49.20;98964.34;145060;1257;111161;-76
2023/03/12 01:40:28;;;;;;;3.40;3.10;;;;;;;7.15;48.93;98957.08;144819;1260;98193;-76
2023/03/12 01:43:51;;;;;;;3.30;2.80;;;;;;;7.15;48.86;98954.48;145167;1260;98532;-76
2023/03/12 01:47:13;;;;;;;4.10;3.30;;;;;;;7.15;49.09;98954.33;144777;1257;98038;-77
2023/03/12 01:50:35;;;;;;;3.70;3.30;;;;;;;7.17;48.97;98947.62;145080;1257;97947;-76
2023/03/12 01:54:00;;;;;;;4.10;3.00;;;;;;;7.17;49.08;98947.96;144972;1259;102630;-76
2023/03/12 01:57:37;;;;;;;4.40;3.40;;;;;;;7.18;49.04;98950.57;144871;1256;103196;-78
2023/03/12 02:01:00;;;;;;;4.30;3.30;;;;;;;7.20;49.02;98951.46;144947;1258;103087;-76
2023/03/12 02:04:24;;;;;;;5.10;4.10;;;;;;;7.21;48.98;98953.55;144741;1259;98535;-77
2023/03/12 02:07:46;;;;;;;4.60;3.50;;;;;;;7.23;48.86;98951.33;144818;1272;97972;-78
2023/03/12 02:11:08;;;;;;;4.90;3.50;;;;;;;7.24;49.15;98961.36;145066;1260;98824;-77
2023/03/12 02:14:31;;;;;;;4.40;3.40;;;;;;;7.25;48.89;98954.65;144905;1259;108550;-77
2023/03/12 02:17:53;;;;;;;4.50;3.70;;;;;;;7.26;48.76;98956.22;145105;1257;97962;-77
2023/03/12 02:21:25;;;;;;;5.20;3.40;;;;;;;7.27;48.74;98956.05;145043;1260;97925;-78
2023/03/12 02:24:55;;;;;;;6.20;3.60;;;;;;;7.28;48.75;98958.48;144963;1260;109195;-76
2023/03/12 02:28:22;;;;;;;5.10;3.20;;;;;;;7.29;48.72;98960.75;145004;1259;107158;-78
2023/03/12 02:31:49;;;;;;;5.80;3.80;;;;;;;7.29;48.75;98965.60;144913;1257;108443;-75
2023/03/12 02:35:13;;;;;;;3.90;3.10;;;;;;;7.29;48.70;98973.72;144584;1259;107887;-76
2023/03/12 02:38:55;;;;;;;5.50;3.50;;;;;;;7.29;48.69;98968.52;144788;1257;98002;-77
2023/03/12 02:42:17;;;;;;;4.00;3.40;;;;;;;7.29;48.66;98966.29;144890;1261;108455;-77
2023/03/12 02:45:39;;;;;;;5.70;3.60;;;;;;;7.28;48.54;98966.62;144749;1259;98002;-76
2023/03/12 02:49:01;;;;;;;5.10;3.70;;;;;;;7.28;48.62;98969.71;145298;1259;99060;-77
2023/03/12 02:52:23;;;;;;;4.40;3.20;;;;;;;7.28;48.60;98969.20;144878;1260;98800;-78
2023/03/12 02:55:45;;;;;;;5.10;2.90;;;;;;;7.28;48.56;98968.33;144795;1260;98011;-78
2023/03/12 02:59:07;;;;;;;4.10;3.30;;;;;;;7.26;48.55;98967.11;144927;1257;97951;-77
2023/03/12 03:02:32;;;;;;;4.50;3.20;;;;;;;7.26;48.54;98969.16;144992;1257;97945;-77
2023/03/12 03:05:54;;;;;;;4.80;3.60;;;;;;;7.24;48.51;98973.81;144861;1258;98034;-77
2023/03/12 03:09:16;;;;;;;4.10;3.70;;;;;;;7.24;48.47;98973.46;144993;1263;97993;-77
2023/03/12 03:12:39;;;;;;;4.30;3.10;;;;;;;7.24;48.46;98965.35;145168;1255;111120;-77
2023/03/12 03:16:03;;;;;;;4.50;3.40;;;;;;;7.23;48.54;98973.98;145011;1261;110871;-77
2023/03/12 03:19:25;;;;;;;2.80;2.60;;;;;;;7.24;48.51;98981.41;144946;1257;99248;-76
2023/03/12 03:22:47;;;;;;;8.00;3.30;;;;;;;7.24;48.43;98987.28;144935;1259;99210;-76
2023/03/12 03:26:09;;;;;;;4.50;3.40;;;;;;;7.23;48.52;98990.56;145121;1262;102282;-77
2023/03/12 03:29:31;;;;;;;5.10;3.60;;;;;;;7.25;48.53;98998.70;144726;1262;99216;-76
2023/03/12 03:32:53;;;;;;;5.80;3.60;;;;;;;7.25;48.41;99006.13;145048;1260;97969;-77
2023/03/12 03:36:16;;;;;;;6.00;3.60;;;;;;;7.25;48.47;99008.04;144698;1261;107197;-76
2023/03/12 03:39:47;;;;;;;4.00;3.50;;;;;;;7.26;48.39;99017.57;144864;1261;108395;-76
2023/03/12 03:43:09;;;;;;;4.40;2.90;;;;;;;7.25;48.45;99017.02;144928;1260;98066;-76
2023/03/12 03:46:30;;;;;;;6.00;2.70;;;;;;;7.25;48.44;99014.42;144945;1257;99247;-76
2023/03/12 03:49:55;;;;;;;3.80;3.20;;;;;;;7.24;48.35;99015.27;144812;1260;98004;-78
2023/03/12 03:53:18;;;;;;;5.50;3.00;;;;;;;7.22;48.44;99017.32;144688;1257;98100;-76
2023/03/12 03:56:41;;;;;;;6.20;3.20;;;;;;;7.20;48.39;99017.82;144961;1257;98823;-77
2023/03/12 04:00:08;;;;;;;5.00;2.90;;;;;;;7.18;48.31;99025.55;144717;1260;99210;-75
2023/03/12 04:03:34;;;;;;;5.70;2.60;;;;;;;7.19;48.46;99026.62;144648;1260;97973;-76
2023/03/12 04:06:56;;;;;;;4.50;3.40;;;;;;;7.20;48.33;99029.04;144794;1260;97927;-76
2023/03/12 04:10:20;;;;;;;5.00;2.80;;;;;;;7.22;48.40;99037.35;144788;1262;98897;-76
2023/03/12 04:13:42;;;;;;;4.20;2.70;;;;;;;7.23;48.44;99036.18;144894;1259;111961;-76
2023/03/12 04:17:04;;;;;;;3.30;3.00;;;;;;;7.24;48.52;99041.54;144784;1257;98051;-77
2023/03/12 04:20:26;;;;;;;3.60;2.60;;;;;;;7.25;48.42;99041.55;144921;1260;97920;-76
2023/03/12 04:23:48;;;;;;;2.90;2.50;;;;;;;7.26;48.33;99043.83;145035;1261;102148;-76
2023/03/12 04:27:10;;;;;;;4.40;2.70;;;;;;;7.27;48.41;99041.77;144916;1259;97958;-76
2023/03/12 04:30:32;;;;;;;2.50;2.20;;;;;;;7.26;48.47;99044.70;144804;1261;97938;-77
2023/03/12 04:33:54;;;;;;;3.70;2.00;;;;;;;7.27;48.31;99045.91;144849;1256;108414;-76
2023/03/12 04:37:17;;;;;;;4.20;2.10;;;;;;;7.28;48.37;99046.44;145089;1262;98866;-77
2023/03/12 04:40:38;;;;;;;3.20;2.30;;;;;;;7.28;48.34;99042.47;144829;1257;99300;-76
2023/03/12 04:44:01;;;;;;;3.40;2.40;;;;;;;7.29;48.39;99045.27;144777;1262;97987;-75
2023/03/12 04:47:23;;;;;;;2.80;2.00;;;;;;;7.32;48.48;99041.66;144936;1270;98004;-77
2023/03/12 04:50:45;;;;;;;3.20;2.40;;;;;;;7.33;48.25;99040.14;144855;1259;97965;-76
2023/03/12 04:54:07;;;;;;;2.90;2.00;;;;;;;7.35;48.40;99042.41;144915;1260;99236;-76
2023/03/12 04:57:29;;;;;;;3.50;2.50;;;;;;;7.37;48.51;99035.17;144915;1262;97991;-76
2023/03/12 05:00:52;;;;;;;4.10;2.50;;;;;;;7.38;48.31;99039.84;145127;1256;98818;-79
2023/03/12 05:04:13;;;;;;;3.40;2.20;;;;;;;7.40;48.34;99051.11;144628;1260;124633;-76
2023/03/12 05:07:36;;;;;;;4.60;2.40;;;;;;;7.41;48.41;99046.80;144842;1261;97919;-76
2023/03/12 05:10:58;;;;;;;3.30;2.10;;;;;;;7.42;48.34;99047.16;144991;1256;97936;-78
2023/03/12 05:14:20;;;;;;;3.90;2.20;;;;;;;7.42;48.37;99047.52;144821;1261;103456;-76
2023/03/12 05:17:43;;;;;;;3.00;1.80;;;;;;;7.42;48.22;99052.70;145045;1260;98002;-76
2023/03/12 05:21:08;;;;;;;2.30;2.00;;;;;;;7.42;48.33;99052.20;144955;1264;97976;-76
2023/03/12 05:24:30;;;;;;;4.00;1.70;;;;;;;7.42;48.32;99052.19;144875;1262;98098;-76
2023/03/12 05:27:52;;;;;;;5.10;2.30;;;;;;;7.44;48.39;99046.69;144794;1256;98092;-76
2023/03/12 05:31:14;;;;;;;2.50;1.50;;;;;;;7.45;48.39;99049.98;144857;1264;108618;-76
2023/03/12 05:34:36;;;;;;;3.30;1.80;;;;;;;7.47;48.39;99052.95;144829;1271;97991;-76
2023/03/12 05:37:58;;;;;;;2.60;2.00;;;;;;;7.49;48.45;99057.29;144810;1256;99234;-76
2023/03/12 05:41:21;;;;;;;3.20;2.30;;;;;;;7.50;48.34;99062.17;144852;1256;98014;-76
2023/03/12 05:44:44;;;;;;;3.30;1.70;;;;;;;7.52;48.28;99068.91;144693;1266;97970;-76
2023/03/12 05:48:07;;;;;;;3.40;2.20;;;;;;;7.53;48.42;99072.41;144814;1262;97992;-76
2023/03/12 05:51:29;;;;;;;4.10;2.30;;;;;;;7.55;48.30;99073.46;144753;1260;98008;-75
2023/03/12 05:54:52;;;;;;;2.10;1.90;;;;;;;7.56;48.32;99066.41;144864;1256;98092;-76
2023/03/12 05:58:14;;;;;;;2.70;1.90;;;;;;;7.59;48.40;99070.92;144965;1260;97906;-78
2023/03/12 06:01:37;;;;;;;1.90;1.70;;;;;;;7.61;48.29;99076.67;144744;1263;98436;-77
2023/03/12 06:05:00;;;;;;;5.10;2.10;;;;;;;7.63;48.28;99078.26;145050;1256;97918;-76
2023/03/12 06:08:24;;;;;;;2.60;1.50;;;;;;;7.64;48.26;99093.31;144653;1256;97970;-78
2023/03/12 06:11:46;;;;;;;2.70;1.60;;;;;;;7.65;48.27;99092.30;144894;1256;98612;-78
2023/03/12 06:15:10;;;;;;;3.30;1.80;;;;;;;7.66;48.20;99098.69;144679;1263;112066;-77
2023/03/12 06:18:33;;;;;;;2.10;1.60;;;;;;;7.66;48.20;99101.65;144468;1257;99252;-77
2023/03/12 06:21:56;;;;;;;2.80;1.40;;;;;;;7.67;48.19;99105.64;144790;1258;98031;-75
2023/03/12 06:25:20;;;;;;;3.40;1.80;;;;;;;7.69;48.25;99100.47;144602;1260;97993;-76
2023/03/12 06:28:42;;;;;;;2.80;1.90;;;;;;;7.77;48.19;99101.98;144434;1256;99306;-76
2023/03/12 06:32:04;;;;;;;1.90;1.60;;;;;;;7.89;48.12;99104.89;144672;1261;97907;-76
2023/03/12 06:35:25;;;;;;;1.40;1.20;;;;;;;8.05;47.93;99110.84;144876;1260;102226;-77
2023/03/12 06:38:47;;;;;;;5.20;1.70;;;;;;;8.15;47.72;99117.89;144902;1261;97919;-76
2023/03/12 06:42:11;;;;;;;2.90;2.10;;;;;;;8.25;47.76;99121.30;144801;1256;97962;-78
2023/03/12 06:45:35;;;;;;;2.90;1.50;;;;;;;8.30;47.60;99132.25;144843;1256;107550;-75
2023/03/12 06:48:56;;;;;;;2.80;1.40;;;;;;;8.30;47.51;99131.91;144512;1275;98006;-75
2023/03/12 06:52:18;;;;;;;2.10;1.50;;;;;;;8.28;47.49;99135.02;144582;1261;99000;-75
2023/03/12 06:55:42;;;;;;;2.40;1.60;;;;;;;8.30;47.60;99135.38;144580;1259;97977;-75
2023/03/12 06:59:04;;;;;;;1.60;1.10;;;;;;;8.32;47.44;99139.91;144754;1261;97938;-76
2023/03/12 07:02:26;;;;;;;4.50;1.50;;;;;;;8.32;47.35;99149.25;144601;1263;98423;-76
2023/03/12 07:05:49;;;;;;;1.60;1.00;;;;;;;8.31;47.44;99155.65;144837;1257;98052;-78
2023/03/12 07:09:11;;;;;;;2.10;1.60;;;;;;;8.38;47.36;99159.74;144659;1262;97859;-77
2023/03/12 07:12:32;;;;;;;2.50;1.50;;;;;;;8.44;47.36;99161.04;144859;1259;97928;-78
2023/03/12 07:15:54;;;;;;;2.00;1.40;;;;;;;8.56;47.40;99161.70;144953;1260;99232;-77
2023/03/12 07:19:18;;;;;;;3.00;1.20;;;;;;;8.72;47.16;99166.23;144692;1263;111116;-76
2023/03/12 07:22:40;;;;;;;3.40;1.50;;;;;;;8.76;47.05;99169.73;144772;1260;97947;-77
2023/03/12 07:26:04;;;;;;;3.10;1.50;;;;;;;8.76;46.97;99175.27;144859;1260;97951;-78
2023/03/12 07:29:28;;;;;;;2.20;1.20;;;;;;;8.87;46.95;99164.83;144857;1257;101275;-77
2023/03/12 07:32:52;;;;;;;2.10;1.30;;;;;;;9.05;46.81;99171.45;144779;1257;102179;-78
2023/03/12 07:36:14;;;;;;;5.70;1.50;;;;;;;9.24;46.64;99175.95;144857;1272;98110;-78
2023/03/12 07:39:36;;;;;;;2.00;1.20;;;;;;;9.53;46.48;99172.74;144998;1257;99241;-77
2023/03/12 07:42:58;;;;;;;2.00;1.50;;;;;;;9.93;46.36;99180.86;144638;1261;107397;-76
2023/03/12 07:46:21;;;;;;;2.40;1.70;;;;;;;11.20;45.86;99187.14;144723;1261;97989;-77
2023/03/12 07:49:43;;;;;;;1.70;1.20;;;;;;;12.84;44.49;99188.35;144774;1262;98862;-76
2023/03/12 07:53:06;;;;;;;3.50;1.70;;;;;;;12.90;43.36;99191.49;144995;1257;99251;-77
2023/03/12 07:56:28;;;;;;;3.00;1.40;;;;;;;13.27;43.23;99196.46;145042;1257;97984;-77
2023/03/12 07:59:50;;;;;;;1.90;1.70;;;;;;;15.10;41.61;99201.92;144714;1259;97998;-77
2023/03/12 08:03:13;;;;;;;2.20;1.00;;;;;;;15.08;40.93;99208.42;144843;1257;97922;-79
2023/03/12 08:06:37;;;;;;;1.50;1.30;;;;;;;15.50;40.21;99212.73;144688;1261;97935;-77
2023/03/12 08:09:59;;;;;;;3.50;1.10;;;;;;;15.52;39.61;99215.83;144955;1257;99240;-76
2023/03/12 08:13:23;;;;;;;3.00;1.20;;;;;;;15.44;39.17;99215.61;144646;1260;98041;-78
2023/03/12 08:16:45;;;;;;;2.00;1.10;;;;;;;16.13;39.21;99213.25;144936;1259;98335;-78
2023/03/12 08:20:08;;;;;;;1.80;1.30;;;;;;;16.98;38.26;99224.85;145042;1256;99170;-77
2023/03/12 08:23:32;;;;;;;3.00;1.10;;;;;;;16.58;37.67;99222.80;144645;1262;111093;-77
2023/03/12 08:26:54;;;;;;;2.40;1.00;;;;;;;16.03;37.83;99230.83;144832;1260;97916;-78
2023/03/12 08:30:17;;;;;;;2.90;1.00;;;;;;;16.74;37.70;99232.52;144803;1257;97909;-78
2023/03/12 08:33:42;;;;;;;1.30;1.00;;;;;;;16.77;37.13;99241.23;144658;1261;102168;-77
2023/03/12 08:37:04;;;;;;;1.60;0.80;;;;;;;16.16;37.16;99249.70;144682;1258;102341;-79
2023/03/12 08:40:27;;;;;;;1.40;0.90;;;;;;;16.21;37.36;99249.09;144713;1259;98344;-78
2023/03/12 08:43:49;;;;;;;1.40;1.10;;;;;;;16.42;37.10;99247.34;144861;1262;98308;-80
2023/03/12 08:47:10;;;;;;;1.10;0.90;;;;;;;16.24;37.04;99250.95;144792;1262;108390;-78
2023/03/12 08:50:32;;;;;;;1.40;0.90;;;;;;;15.84;37.15;99259.01;145026;1259;98004;-76
2023/03/12 08:53:54;;;;;;;2.90;1.10;;;;;;;15.55;37.45;99266.92;144672;1260;99099;-78
2023/03/12 08:57:16;;;;;;;2.60;0.90;;;;;;;16.83;37.46;99264.02;144755;1257;98106;-77
2023/03/12 09:00:38;;;;;;;1.80;0.90;;;;;;;18.11;36.48;99262.34;144605;1262;97985;-78
2023/03/12 09:04:01;;;;;;;2.50;1.00;;;;;;;19.31;35.99;99269.96;144683;1260;99268;-77
2023/03/12 09:07:23;;;;;;;1.60;0.90;;;;;;;20.26;35.02;99271.08;144713;1256;98053;-78
2023/03/12 09:10:48;;;;;;;1.30;0.70;;;;;;;20.58;34.19;99289.40;144661;1262;99221;-78
2023/03/12 09:14:10;;;;;;;1.30;0.80;;;;;;;22.16;33.69;99289.23;144762;1257;98728;-77
2023/03/12 09:17:52;;;;;;;1.40;0.70;;;;;;;24.07;32.62;99297.04;144834;1256;98703;-79
2023/03/12 09:21:14;;;;;;;1.40;0.80;;;;;;;23.62;31.70;99297.92;144969;1260;99075;-78
2023/03/12 09:24:36;;;;;;;2.80;0.80;;;;;;;22.55;31.53;99293.53;144967;1257;97894;-79
2023/03/12 09:27:58;;;;;;;1.50;0.90;;;;;;;21.90;31.77;99299.36;144742;1273;110660;-80
2023/03/12 09:31:20;;;;;;;0.90;0.70;;;;;;;22.33;31.66;99308.44;144657;1263;97990;-76
2023/03/12 09:34:42;;;;;;;1.00;0.70;;;;;;;22.62;31.57;99304.70;144892;1259;97999;-79
2023/03/12 09:38:04;;;;;;;1.10;0.60;;;;;;;22.72;31.40;99312.29;144737;1262;102072;-79
2023/03/12 09:41:43;;;;;;;1.90;0.70;;;;;;;23.34;31.26;99320.36;144835;1260;101806;-78
2023/03/12 09:45:06;;;;;;;1.20;1.00;;;;;;;23.37;31.10;99316.10;144655;1263;99138;-77
2023/03/12 09:48:36;;;;;;;1.10;0.80;;;;;;;23.59;30.96;99322.56;144597;1266;97935;-77
2023/03/12 09:52:27;;;;;;;0.70;0.60;;;;;;;23.42;30.60;99328.30;145092;1256;98427;-77
2023/03/12 09:55:50;;;;;;;1.80;1.60;;;;;;;22.78;30.77;99327.42;144813;1262;101081;-77
2023/03/12 09:59:12;;;;;;;1.50;0.60;;;;;;;22.03;31.11;99332.63;144770;1262;97909;-77
2023/03/12 10:02:52;;;;;;;2.80;0.90;;;;;;;21.26;31.59;99333.77;144792;1262;98044;-77
2023/03/12 10:06:20;;;;;;;1.00;0.60;;;;;;;20.44;32.18;99336.13;145191;1256;103162;-80
2023/03/12 10:09:57;;;;;;;0.80;0.60;;;;;;;19.64;32.86;99334.73;145529;1256;103037;-79
2023/03/12 10:13:37;;;;;;;1.20;0.70;;;;;;;18.84;33.54;99337.18;145221;1255;102298;-78
2023/03/12 10:17:40;;;;;;;3.20;0.70;;;;;;;18.19;34.17;99340.39;144902;1262;103108;-78
2023/03/12 10:21:02;;;;;;;0.90;0.60;;;;;;;17.65;34.95;99345.65;144628;1264;101961;-79
2023/03/12 10:25:08;;;;;;;1.10;0.70;;;;;;;17.27;35.34;99351.70;144463;1268;97899;-78
2023/03/12 10:28:45;;;;;;;1.40;0.90;;;;;;;16.84;35.84;99349.55;143690;1273;102355;-77
2023/03/12 10:32:09;;;;;;;1.60;0.80;;;;;;;16.52;36.15;99357.45;143866;1271;100949;-78
2023/03/12 10:35:31;;;;;;;1.40;0.70;;;;;;;16.41;36.57;99360.79;143533;1277;101018;-78
2023/03/12 10:38:53;;;;;;;0.90;0.60;;;;;;;16.34;36.70;99366.86;143680;1271;98106;-80
2023/03/12 10:42:26;;;;;;;1.00;0.60;;;;;;;16.20;36.80;99363.77;143248;1276;99687;-78
2023/03/12 10:46:01;;;;;;;1.20;0.60;;;;;;;15.97;36.98;99365.15;143574;1273;107923;-77
2023/03/12 10:49:26;;;;;;;1.50;1.00;;;;;;;15.74;37.12;99364.26;143381;1274;107660;-78
2023/03/12 10:52:50;;;;;;;1.50;0.60;;;;;;;15.54;37.44;99369.39;143154;1274;107647;-76
2023/03/12 10:56:14;;;;;;;0.70;0.40;;;;;;;15.38;37.60;99373.27;142993;1276;107646;-77
2023/03/12 10:59:41;;;;;;;3.20;0.70;;;;;;;15.43;37.86;99372.85;143814;1277;107360;-77
2023/03/12 11:03:05;;;;;;;0.90;0.60;;;;;;;15.43;37.91;99377.41;143960;1270;107581;-77
2023/03/12 11:06:29;;;;;;;2.10;0.80;;;;;;;15.32;38.01;99379.83;144656;1257;106433;-77
2023/03/12 11:10:16;;;;;;;1.10;0.50;;;;;;;15.73;38.22;99379.66;144529;1256;107500;-75
2023/03/12 11:13:40;;;;;;;0.70;0.70;;;;;;;16.49;37.58;99386.95;144690;1280;107463;-77
2023/03/12 11:17:19;;;;;;;1.20;0.70;;;;;;;16.67;37.27;99384.38;144612;1270;107600;-76
2023/03/12 11:20:41;;;;;;;1.00;0.60;;;;;;;16.76;37.18;99388.99;144774;1267;107283;-76
2023/03/12 11:24:07;;;;;;;1.30;0.70;;;;;;;16.85;37.10;99388.14;144634;1262;97988;-77
2023/03/12 11:27:45;;;;;;;1.70;0.90;;;;;;;17.34;36.96;99389.49;144669;1256;106660;-76
2023/03/12 11:31:26;;;;;;;1.90;0.50;;;;;;;18.03;36.46;99397.56;144573;1262;107247;-76
2023/03/12 11:34:49;;;;;;;1.20;0.70;;;;;;;18.12;36.38;99389.79;144756;1263;107899;-77
2023/03/12 11:38:30;;;;;;;3.80;0.50;;;;;;;18.41;36.32;99396.15;144592;1262;98441;-76
2023/03/12 11:42:07;;;;;;;1.10;0.70;;;;;;;19.06;35.91;99398.23;144792;1262;107439;-76
2023/03/12 11:45:43;;;;;;;1.00;0.60;;;;;;;19.18;35.48;99398.09;144543;1263;107106;-76
2023/03/12 11:49:17;;;;;;;0.90;0.50;;;;;;;18.92;35.62;99403.20;144821;1260;106663;-76
2023/03/12 11:52:57;;;;;;;1.40;0.50;;;;;;;18.76;35.68;99406.05;144575;1257;107617;-77
2023/03/12 11:56:29;;;;;;;0.90;0.50;;;;;;;18.62;35.68;99404.61;144827;1262;107146;-76
2023/03/12 12:00:16;;;;;;;3.40;0.60;;;;;;;18.67;35.76;99405.73;144650;1261;107562;-76
2023/03/12 12:03:50;;;;;;;2.00;0.70;;;;;;;18.69;35.71;99406.21;144752;1257;107122;-77
2023/03/12 12:07:27;;;;;;;1.10;0.60;;;;;;;18.45;35.80;99406.80;144928;1261;107538;-76
2023/03/12 12:11:01;;;;;;;0.80;0.60;;;;;;;18.45;35.83;99406.95;144728;1263;107286;-76
2023/03/12 12:14:52;;;;;;;1.80;0.60;;;;;;;18.26;35.90;99413.21;144784;1271;107073;-76
2023/03/12 12:18:28;;;;;;;0.70;0.50;;;;;;;18.04;36.06;99410.73;144778;1262;107218;-76
2023/03/12 12:22:05;;;;;;;1.00;0.60;;;;;;;17.91;36.21;99409.08;144807;1261;107521;-77
2023/03/12 12:26:04;;;;;;;1.30;0.80;;;;;;;17.72;36.27;99407.89;144778;1264;106908;-76
2023/03/12 12:29:35;;;;;;;0.90;0.50;;;;;;;17.56;36.28;99409.08;144857;1257;107538;-79
2023/03/12 12:33:34;;;;;;;1.30;0.60;;;;;;;17.41;36.50;99412.20;144741;1262;107514;-77
2023/03/12 12:37:10;;;;;;;1.90;0.70;;;;;;;17.61;36.72;99418.83;144824;1256;107138;-77
2023/03/12 12:41:08;;;;;;;1.90;1.00;;;;;;;18.14;36.48;99421.39;144629;1264;108348;-77
2023/03/12 12:44:37;;;;;;;1.60;0.70;;;;;;;18.28;36.46;99426.34;144164;1277;107465;-78
2023/03/12 12:48:03;;;;;;;0.80;0.60;;;;;;;18.26;36.38;99429.77;143992;1270;108165;-76
2023/03/12 12:51:39;;;;;;;2.00;0.60;;;;;;;18.33;36.33;99439.80;144535;1266;108065;-77
2023/03/12 12:55:29;;;;;;;1.00;0.50;;;;;;;18.24;36.38;99452.66;144143;1266;107660;-75
2023/03/12 12:58:57;;;;;;;1.80;0.80;;;;;;;18.07;35.97;99458.84;144200;1268;107631;-77
2023/03/12 13:02:21;;;;;;;1.60;0.90;;;;;;;17.83;35.06;99460.05;144227;1268;107420;-74
2023/03/12 13:05:49;;;;;;;2.40;1.40;;;;;;;17.46;33.84;99457.42;144183;1265;108059;-76
2023/03/12 13:09:15;;;;;;;2.00;0.80;;;;;;;16.98;32.80;99460.40;144322;1268;108466;-79
2023/03/12 13:12:54;;;;;;;2.10;1.20;;;;;;;16.58;32.11;99467.87;144351;1287;108509;-76
2023/03/12 13:16:35;;;;;;;2.20;1.10;;;;;;;16.42;31.59;99472.14;144571;1264;107509;-74
2023/03/12 13:20:12;;;;;;;2.20;1.00;;;;;;;16.20;31.20;99478.40;144240;1263;108542;-75
2023/03/12 13:24:21;;;;;;;2.90;0.90;;;;;;;16.07;32.30;99481.39;144826;1262;105792;-74
2023/03/12 13:27:44;;;;;;;3.40;0.90;;;;;;;16.22;32.88;99492.76;144681;1263;107621;-74
2023/03/12 13:31:27;;;;;;;3.70;1.60;;;;;;;16.46;33.86;99495.75;144868;1260;106374;-74
2023/03/12 13:34:49;;;;;;;3.30;1.20;;;;;;;16.95;33.68;99488.35;144939;1264;105886;-73
2023/03/12 13:38:21;;;;;;;2.90;1.20;;;;;;;17.32;33.31;99487.36;145075;1256;98693;-75
2023/03/12 13:41:51;;;;;;;3.60;1.20;;;;;;;17.34;32.57;99489.44;144484;1265;108233;-76
2023/03/12 13:45:25;;;;;;;2.40;0.90;;;;;;;17.06;31.94;99488.52;145035;1263;108196;-75
2023/03/12 13:48:48;;;;;;;2.60;1.00;;;;;;;16.77;31.41;99492.86;145070;1263;107312;-74
2023/03/12 13:52:13;;;;;;;3.50;1.20;;;;;;;16.92;31.14;99491.58;145041;1264;97921;-76
2023/03/12 13:55:44;;;;;;;1.50;0.90;;;;;;;17.66;30.31;99491.66;144881;1263;107380;-76
2023/03/12 13:59:13;;;;;;;2.20;1.10;;;;;;;18.12;29.70;99491.95;144739;1260;108374;-75
2023/03/12 14:02:41;;;;;;;2.50;1.20;;;;;;;18.15;28.93;99494.17;144834;1270;107427;-76
2023/03/12 14:06:12;;;;;;;5.70;1.00;;;;;;;17.72;28.67;99501.21;144776;1260;109089;-75
2023/03/12 14:09:59;;;;;;;3.20;1.20;;;;;;;17.33;28.73;99504.39;144960;1257;107109;-75
2023/03/12 14:14:01;;;;;;;2.60;1.40;;;;;;;17.41;28.58;99504.77;144865;1267;107517;-73
2023/03/12 14:17:27;;;;;;;1.80;1.00;;;;;;;17.63;28.39;99501.17;144812;1263;106144;-75
2023/03/12 14:20:57;;;;;;;4.80;1.10;;;;;;;17.68;28.25;99496.70;144790;1260;107399;-75
2023/03/12 14:24:19;;;;;;;3.10;1.20;;;;;;;17.61;28.07;99506.66;144871;1260;107425;-74
2023/03/12 14:27:44;;;;;;;2.00;0.90;;;;;;;17.50;28.06;99513.73;144852;1260;99209;-74
2023/03/12 14:31:11;;;;;;;3.10;1.00;;;;;;;17.38;27.83;99516.41;144799;1262;107577;-75
2023/03/12 14:34:45;;;;;;;1.30;1.00;;;;;;;17.09;27.88;99514.29;144974;1269;107486;-75
2023/03/12 14:38:34;;;;;;;2.80;1.00;;;;;;;16.72;27.85;99519.93;144844;1260;106569;-74
2023/03/12 14:42:00;;;;;;;;;;;;;;;16.37;28.01;99518.85;144802;1262;107431;-75
2023/03/12 14:45:22;;;;;;;3.40;1.00;;;;;;;15.98;28.47;99518.67;144852;1272;107558;-74
2023/03/12 14:48:48;;;;;;;5.20;1.10;;;;;;;15.65;28.62;99521.64;145140;1269;98041;-74
2023/03/12 14:52:12;;;;;;;2.20;1.30;;;;;;;15.39;29.04;99526.11;144703;1264;107659;-74
2023/03/12 14:55:34;;;;;;;3.50;1.30;;;;;;;15.15;29.29;99529.84;144831;1269;108409;-74
2023/03/12 14:58:58;;;;;;;1.90;1.00;;;;;;;14.88;29.43;99525.85;144807;1260;97953;-75
2023/03/12 15:02:20;;;;;;;4.80;1.30;;;;;;;14.61;29.58;99526.39;144839;1261;99204;-75
2023/03/12 15:05:47;;;;;;;3.70;1.40;;;;;;;14.26;29.89;99530.05;144623;1270;98515;-78
2023/03/12 15:09:27;;;;;;;5.30;1.20;;;;;;;14.00;30.34;99535.94;145081;1260;108420;-77
2023/03/12 15:12:51;;;;;;;5.50;1.40;;;;;;;13.74;30.57;99545.09;144827;1256;106806;-76
2023/03/12 15:16:13;;;;;;;2.00;1.00;;;;;;;13.46;30.88;99547.08;144564;1265;107463;-77
2023/03/12 15:19:38;;;;;;;2.40;0.90;;;;;;;13.19;31.05;99551.10;144803;1260;97989;-75
2023/03/12 15:23:03;;;;;;;3.00;1.60;;;;;;;12.94;31.39;99549.50;145011;1262;107546;-76
2023/03/12 15:26:31;;;;;;;5.90;1.70;;;;;;;12.75;32.00;99557.33;144588;1270;99267;-76
2023/03/12 15:29:57;;;;;;;3.50;1.90;;;;;;;12.56;32.32;99555.03;145052;1260;107307;-77
2023/03/12 15:33:19;;;;;;;3.50;1.80;;;;;;;12.37;32.74;99552.36;144495;1266;107221;-76
2023/03/12 15:36:48;;;;;;;4.30;1.90;;;;;;;12.20;33.04;99554.93;144717;1257;99287;-75
2023/03/12 15:40:24;;;;;;;3.70;2.10;;;;;;;12.03;33.33;99550.50;144687;1270;107159;-76
2023/03/12 15:43:51;;;;;;;2.60;1.30;;;;;;;11.84;33.69;99554.75;144768;1261;107450;-77
2023/03/12 15:47:18;;;;;;;4.30;1.60;;;;;;;11.68;33.94;99556.21;144775;1260;107903;-75
2023/03/12 15:50:41;;;;;;;4.10;2.20;;;;;;;11.53;34.51;99555.07;144870;1267;107471;-76
2023/03/12 15:54:24;;;;;;;6.40;2.10;;;;;;;11.41;35.25;99565.44;144913;1260;106504;-75
2023/03/12 15:57:54;;;;;;;4.70;2.10;;;;;;;11.26;36.03;99570.71;144871;1261;107467;-75
2023/03/12 16:01:17;;;;;;;4.70;1.70;;;;;;;11.11;36.35;99573.38;144708;1257;107623;-77
2023/03/12 16:04:39;;;;;;;6.00;2.00;;;;;;;11.05;37.26;99572.45;145052;1269;107489;-77